Time;durP1;ratioP1;P1;durP2;ratioP2;P2;SDS_P1;SDS_P2;PMS_P1;PMS_P2;Temp;Humidity;BMP_temperature;BMP_pressure;BME280_temperature;BME280_humidity;BME280_pressure;Samples;Min_cycle;Max_cycle;Signal;HPM_P1;HPM_P2
2022/12/10 00:01:09;;;;;;;;;98.67;76.33;;;;;3.50;74.85;100220.44;5103497;27;46480;-63
2022/12/10 00:03:35;;;;;;;;;74.25;55.00;;;;;3.58;74.95;100214.06;5096851;27;45720;-62
2022/12/10 00:06:06;;;;;;;;;81.75;57.75;;;;;3.61;75.25;100213.97;5096004;27;45342;-63
2022/12/10 00:08:31;;;;;;;;;77.50;60.75;;;;;3.68;74.64;100218.97;5080123;27;45444;-62
2022/12/10 00:10:57;;;;;;;;;69.00;52.25;;;;;3.55;75.04;100226.41;5095509;27;45447;-65
2022/12/10 00:13:22;;;;;;;;;61.75;47.00;;;;;3.51;75.11;100218.66;5098129;27;45413;-63
2022/12/10 00:15:48;;;;;;;;;76.75;58.50;;;;;3.56;75.46;100227.28;5097696;27;45832;-63
2022/12/10 00:18:13;;;;;;;;;73.50;58.00;;;;;3.67;74.56;100224.28;5095856;27;45405;-62
2022/12/10 00:20:39;;;;;;;;;77.00;59.00;;;;;3.74;74.33;100225.78;5097325;27;46503;-62
2022/12/10 00:23:04;;;;;;;;;60.75;48.75;;;;;3.76;74.29;100216.06;5060944;27;45362;-62
2022/12/10 00:25:31;;;;;;;;;72.75;55.25;;;;;3.74;74.30;100223.16;5077080;27;45323;-63
2022/12/10 00:27:57;;;;;;;;;73.50;57.50;;;;;3.77;73.87;100220.41;5109210;27;45194;-63
2022/12/10 00:30:22;;;;;;;;;72.00;53.50;;;;;3.76;73.93;100226.59;5118115;27;45434;-63
2022/12/10 00:32:48;;;;;;;;;64.50;53.75;;;;;3.76;73.85;100223.97;5090745;27;45255;-63
2022/12/10 00:35:13;;;;;;;;;67.75;52.75;;;;;3.71;73.95;100232.03;5077153;27;45232;-62
2022/12/10 00:37:38;;;;;;;;;70.00;58.50;;;;;3.58;74.94;100229.84;5097035;27;45345;-63
2022/12/10 00:40:04;;;;;;;;;67.50;54.00;;;;;3.50;74.99;100237.97;5096230;27;46366;-62
2022/12/10 00:42:30;;;;;;;;;59.75;48.00;;;;;3.47;74.77;100223.16;5079031;27;45288;-63
2022/12/10 00:44:55;;;;;;;;;75.50;56.50;;;;;3.67;74.53;100229.56;5099463;27;45182;-63
2022/12/10 00:47:21;;;;;;;;;76.25;59.00;;;;;3.68;73.80;100231.28;5098338;27;45218;-63
2022/12/10 00:49:46;;;;;;;;;81.25;61.25;;;;;3.75;73.92;100236.25;5078904;27;46500;-62
2022/12/10 00:52:11;;;;;;;;;76.75;58.00;;;;;3.77;74.23;100236.19;5088808;27;45385;-61
2022/12/10 00:54:37;;;;;;;;;78.75;57.75;;;;;3.76;73.59;100239.75;5096160;27;45456;-66
2022/12/10 00:57:03;;;;;;;;;74.75;58.75;;;;;3.69;74.52;100243.50;5096373;27;45547;-63
2022/12/10 00:59:28;;;;;;;;;71.50;56.25;;;;;3.60;73.96;100228.03;5078556;27;47971;-62
2022/12/10 01:01:53;;;;;;;;;76.00;57.75;;;;;3.66;74.08;100218.19;5096816;27;45425;-61
2022/12/10 01:04:19;;;;;;;;;74.00;56.25;;;;;3.62;74.16;100231.47;5096913;27;45440;-62
2022/12/10 01:06:47;;;;;;;;;79.25;57.75;;;;;3.62;74.38;100244.59;5080943;27;45428;-61
2022/12/10 01:09:15;;;;;;;;;76.25;58.25;;;;;3.67;74.50;100247.97;5091062;27;46218;-62
2022/12/10 01:11:43;;;;;;;;;79.25;62.00;;;;;3.66;74.10;100244.47;5067630;27;45434;-62
2022/12/10 01:14:12;;;;;;;;;71.00;58.50;;;;;3.73;73.69;100245.13;5097756;27;45431;-63
2022/12/10 01:16:37;;;;;;;;;83.00;65.00;;;;;3.71;74.00;100244.31;5096945;27;45461;-62
2022/12/10 01:19:03;;;;;;;;;66.25;54.50;;;;;3.77;73.93;100251.97;5097460;27;45478;-62
2022/12/10 01:21:30;;;;;;;;;74.50;58.50;;;;;3.77;73.62;100241.47;5092240;27;45541;-62
2022/12/10 01:23:57;;;;;;;;;75.50;58.75;;;;;3.80;73.85;100246.63;5077218;28;45402;-62
2022/12/10 01:26:28;;;;;;;;;75.50;56.25;;;;;3.80;73.31;100241.38;5066522;27;45546;-62
2022/12/10 01:28:55;;;;;;;;;80.75;62.00;;;;;3.85;73.50;100261.34;5075712;28;45484;-62
2022/12/10 01:31:23;;;;;;;;;73.50;59.25;;;;;3.88;73.46;100260.38;5089527;27;45317;-64
2022/12/10 01:33:49;;;;;;;;;73.75;59.00;;;;;3.90;73.41;100263.81;5096418;27;45276;-64
2022/12/10 01:36:17;;;;;;;;;72.00;59.00;;;;;3.79;73.16;100260.72;5096241;27;45599;-63
2022/12/10 01:38:43;;;;;;;;;74.25;56.75;;;;;3.83;73.79;100270.19;5094725;27;45991;-62
2022/12/10 01:41:15;;;;;;;;;74.50;57.50;;;;;3.87;73.54;100278.84;5094192;27;45439;-65
2022/12/10 01:44:09;;;;;;;;;69.50;53.25;;;;;3.85;73.04;100287.66;5095834;27;45390;-63
2022/12/10 01:46:38;;;;;;;;;62.75;44.75;;;;;3.70;73.75;100287.31;5074285;27;45313;-63
2022/12/10 01:49:12;;;;;;;;;66.00;51.00;;;;;3.62;73.69;100279.66;5110866;27;45602;-62
2022/12/10 01:51:40;;;;;;;;;69.00;56.25;;;;;3.70;74.04;100292.56;5098554;27;45530;-64
2022/12/10 01:54:17;;;;;;;;;63.75;50.25;;;;;3.61;73.95;100293.72;5096293;27;45279;-63
2022/12/10 01:56:45;;;;;;;;;72.75;55.50;;;;;3.54;74.53;100308.84;5058603;28;45369;-63
2022/12/10 01:59:13;;;;;;;;;71.25;53.75;;;;;3.44;74.53;100296.88;5076422;27;47887;-61
2022/12/10 02:01:47;;;;;;;;;69.75;52.00;;;;;3.56;74.26;100303.53;5094769;27;45307;-63
2022/12/10 02:04:19;;;;;;;;;70.25;52.25;;;;;3.47;74.41;100294.16;5096786;27;45235;-62
2022/12/10 02:06:57;;;;;;;;;59.50;49.50;;;;;3.44;74.94;100301.28;5095073;27;45547;-61
2022/12/10 02:09:52;;;;;;;;;69.25;52.75;;;;;3.44;74.53;100307.41;5075277;27;46355;-62
2022/12/10 02:12:35;;;;;;;;;67.00;51.50;;;;;3.48;74.67;100309.00;5087391;27;45288;-63
2022/12/10 02:15:14;;;;;;;;;65.75;48.50;;;;;3.46;74.96;100310.84;5098837;27;45451;-63
2022/12/10 02:17:54;;;;;;;;;70.00;53.00;;;;;3.39;75.09;100309.31;5079712;27;45190;-62
2022/12/10 02:20:33;;;;;;;;;65.75;52.25;;;;;3.38;75.21;100318.09;5096230;27;45505;-62
2022/12/10 02:23:03;;;;;;;;;64.75;52.25;;;;;3.37;75.01;100315.50;5098935;27;45406;-62
2022/12/10 02:25:46;;;;;;;;;60.00;49.00;;;;;3.42;75.68;100325.00;5082699;27;45457;-62
2022/12/10 02:28:45;;;;;;;;;66.25;51.50;;;;;3.50;74.88;100325.59;5084948;27;45577;-66
2022/12/10 02:31:14;;;;;;;;;68.75;52.00;;;;;3.49;74.88;100318.63;5099100;27;45355;-63
2022/12/10 02:33:45;;;;;;;;;66.25;51.25;;;;;3.43;74.88;100321.44;5091143;27;45371;-62
2022/12/10 02:36:14;;;;;;;;;64.00;50.50;;;;;3.44;75.12;100322.31;5099291;27;45503;-62
2022/12/10 02:38:40;;;;;;;;;55.00;46.75;;;;;3.42;75.15;100319.75;5104436;27;45588;-63
2022/12/10 02:41:15;;;;;;;;;68.75;52.00;;;;;3.38;75.31;100317.22;5119494;27;46073;-61
2022/12/10 02:43:43;;;;;;;;;65.75;50.75;;;;;3.45;75.22;100324.03;5077477;27;45504;-63
2022/12/10 02:46:09;;;;;;;;;69.00;55.00;;;;;3.48;75.20;100322.16;5087008;27;45428;-62
2022/12/10 02:48:36;;;;;;;;;67.00;49.50;;;;;3.55;75.14;100323.69;5078841;28;45343;-62
2022/12/10 02:51:01;;;;;;;;;60.50;49.00;;;;;3.62;74.61;100323.50;5087558;27;47151;-62
2022/12/10 02:53:27;;;;;;;;;56.00;48.75;;;;;3.64;73.93;100314.63;5097059;27;45436;-67
2022/12/10 02:56:17;;;;;;;;;55.75;46.50;;;;;3.69;74.48;100323.25;5098372;27;45301;-62
2022/12/10 02:58:43;;;;;;;;;61.00;48.50;;;;;3.73;73.68;100318.75;5099620;27;45325;-62
2022/12/10 03:01:36;;;;;;;;;65.75;52.00;;;;;3.68;73.96;100321.53;5098140;27;45427;-62
2022/12/10 03:04:13;;;;;;;;;65.25;48.75;;;;;3.67;74.29;100321.59;5099268;27;45177;-62
2022/12/10 03:06:46;;;;;;;;;56.00;47.25;;;;;3.59;74.47;100310.44;5098171;27;45372;-66
2022/12/10 03:09:22;;;;;;;;;65.50;49.50;;;;;3.65;74.38;100312.91;5097002;27;45164;-62
2022/12/10 03:11:53;;;;;;;;;34.50;29.50;;;;;3.69;74.94;100328.53;5098621;27;45480;-62
2022/12/10 03:14:29;;;;;;;;;60.75;49.25;;;;;3.72;74.14;100328.41;5098080;27;45430;-63
2022/12/10 03:16:57;;;;;;;;;46.50;43.25;;;;;3.55;74.33;100305.28;5078691;28;45373;-62
2022/12/10 03:19:34;;;;;;;;;49.50;43.25;;;;;3.57;74.45;100312.28;5079184;27;45776;-63
2022/12/10 03:22:03;;;;;;;;;50.50;46.00;;;;;3.56;74.66;100311.41;5076557;27;47626;-62
2022/12/10 03:24:29;;;;;;;;;59.25;46.25;;;;;3.59;74.67;100326.22;5075967;28;45373;-62
2022/12/10 03:26:57;;;;;;;;;43.25;36.50;;;;;3.65;74.87;100323.41;5077939;28;45429;-62
2022/12/10 03:29:31;;;;;;;;;56.50;44.25;;;;;3.73;75.01;100332.75;5115703;27;45514;-62
2022/12/10 03:31:58;;;;;;;;;58.00;46.25;;;;;3.67;74.53;100332.13;5119114;27;46333;-62
2022/12/10 03:34:23;;;;;;;;;64.75;50.25;;;;;3.60;74.83;100338.47;5096960;27;45585;-62
2022/12/10 03:36:50;;;;;;;;;54.25;42.25;;;;;3.55;74.88;100339.47;5068391;27;45436;-63
2022/12/10 03:39:16;;;;;;;;;55.00;45.25;;;;;3.61;75.08;100340.19;5098404;27;45623;-63
2022/12/10 03:41:42;;;;;;;;;36.00;34.50;;;;;3.69;74.60;100335.56;5078949;27;46162;-64
2022/12/10 03:44:08;;;;;;;;;62.50;46.25;;;;;3.75;74.56;100332.72;5081243;27;45328;-63
2022/12/10 03:46:34;;;;;;;;;46.50;37.00;;;;;3.74;74.85;100337.13;5097838;27;45435;-61
2022/12/10 03:49:03;;;;;;;;;67.50;43.25;;;;;3.74;74.13;100331.84;5099080;27;45609;-62
2022/12/10 03:51:28;;;;;;;;;53.25;38.75;;;;;3.77;74.94;100330.88;5096123;27;46045;-62
2022/12/10 03:53:54;;;;;;;;;59.00;47.25;;;;;3.68;74.78;100337.31;5081745;27;45508;-61
2022/12/10 03:56:20;;;;;;;;;42.75;39.50;;;;;3.72;74.57;100343.34;5097439;27;45283;-61
2022/12/10 03:58:46;;;;;;;;;53.25;43.00;;;;;3.68;74.52;100329.44;5095958;27;45526;-61
2022/12/10 04:01:12;;;;;;;;;67.50;46.50;;;;;3.81;74.83;100345.69;5074419;27;46860;-63
2022/12/10 04:03:41;;;;;;;;;48.75;42.25;;;;;3.83;74.08;100347.34;5075212;27;45364;-64
2022/12/10 04:06:12;;;;;;;;;59.00;42.50;;;;;3.88;74.04;100357.72;5077574;28;45239;-62
2022/12/10 04:08:38;;;;;;;;;56.50;44.75;;;;;3.83;74.09;100346.50;5091823;27;45283;-63
2022/12/10 04:11:05;;;;;;;;;34.50;33.00;;;;;3.67;73.31;100358.41;5097820;27;45357;-62
2022/12/10 04:16:26;;;;;;;;;35.00;23.25;;;;;3.71;73.34;100352.13;5079250;27;45428;-63
2022/12/10 04:18:52;;;;;;;;;45.75;38.75;;;;;3.78;72.75;100351.06;5078951;27;45233;-64
2022/12/10 04:26:52;;;;;;;;;30.50;25.00;;;;;3.74;71.98;100350.25;5077806;27;45308;-63
2022/12/10 04:29:26;;;;;;;;;36.00;34.75;;;;;3.78;72.61;100345.78;5096666;27;45772;-63
2022/12/10 04:31:52;;;;;;;;;51.50;34.25;;;;;3.81;72.56;100350.94;5096368;27;46160;-64
2022/12/10 04:34:18;;;;;;;;;41.75;38.50;;;;;3.79;72.97;100356.25;5095974;27;45852;-62
2022/12/10 04:36:44;;;;;;;;;36.50;32.00;;;;;3.68;72.55;100352.25;5091165;27;45421;-61
2022/12/10 04:39:11;;;;;;;;;47.50;37.25;;;;;3.72;72.98;100353.84;5097603;27;45648;-62
2022/12/10 04:41:43;;;;;;;;;43.50;41.75;;;;;3.74;72.99;100352.91;5095307;27;45544;-62
2022/12/10 04:44:08;;;;;;;;;47.50;38.00;;;;;3.72;73.46;100340.72;5097143;27;45436;-63
2022/12/10 04:46:34;;;;;;;;;52.50;40.00;;;;;3.87;72.87;100357.75;5096178;27;45406;-62
2022/12/10 04:49:00;;;;;;;;;54.50;42.75;;;;;3.80;72.80;100349.22;5078375;27;45442;-64
2022/12/10 04:51:25;;;;;;;;;46.50;35.75;;;;;3.90;72.74;100361.16;5081834;27;45425;-64
2022/12/10 04:53:50;;;;;;;;;42.75;37.25;;;;;3.93;72.31;100365.47;5076607;27;45418;-62
2022/12/10 04:56:16;;;;;;;;;33.00;31.25;;;;;4.01;72.45;100369.56;5076597;27;45256;-64
2022/12/10 04:58:42;;;;;;;;;27.00;24.75;;;;;4.02;71.10;100363.38;5077373;28;45562;-62
2022/12/10 05:01:10;;;;;;;;;45.00;33.00;;;;;4.03;70.54;100370.38;5058727;27;45563;-62
2022/12/10 05:03:36;;;;;;;;;31.25;25.50;;;;;4.04;70.93;100368.63;5090312;27;45405;-62
2022/12/10 05:06:03;;;;;;;;;42.25;30.00;;;;;3.97;70.65;100354.78;5084210;27;45398;-62
2022/12/10 05:08:30;;;;;;;;;37.50;28.00;;;;;3.90;71.11;100352.41;5077903;27;45658;-63
2022/12/10 05:11:00;;;;;;;;;23.75;21.75;;;;;3.90;71.06;100363.78;5089968;27;45464;-62
2022/12/10 05:13:25;;;;;;;;;34.00;25.75;;;;;3.90;70.38;100368.19;5061503;27;45489;-61
2022/12/10 05:15:50;;;;;;;;;35.50;28.25;;;;;3.95;71.51;100369.78;5095947;27;45413;-62
2022/12/10 05:18:16;;;;;;;;;28.75;28.75;;;;;3.98;69.89;100371.44;5097348;27;45354;-62
2022/12/10 05:20:41;;;;;;;;;37.50;33.25;;;;;3.92;70.06;100367.25;5096307;27;45483;-61
2022/12/10 05:26:07;;;;;;;;;37.00;32.50;;;;;4.01;71.01;100364.28;5079605;27;45384;-62
2022/12/10 05:28:36;;;;;;;;;43.50;38.75;;;;;4.07;70.24;100363.25;5070049;27;45633;-62
2022/12/10 05:31:02;;;;;;;;;33.25;29.75;;;;;4.04;70.58;100372.09;5058025;28;47463;-62
2022/12/10 05:33:28;;;;;;;;;41.00;35.25;;;;;3.98;70.42;100369.66;5081342;27;45448;-62
2022/12/10 05:35:59;;;;;;;;;46.00;40.75;;;;;3.96;70.94;100368.84;5077492;27;45477;-63
2022/12/10 05:38:27;;;;;;;;;36.75;29.25;;;;;4.00;70.82;100385.41;5097096;27;45547;-67
2022/12/10 05:40:53;;;;;;;;;37.00;27.00;;;;;3.90;69.67;100381.34;5089549;27;46316;-63
2022/12/10 05:43:19;;;;;;;;;32.75;23.50;;;;;3.84;70.14;100385.91;5082536;27;45177;-63
2022/12/10 05:45:45;;;;;;;;;30.00;18.25;;;;;3.89;70.61;100392.78;5077626;27;45337;-62
2022/12/10 05:48:12;;;;;;;;;38.25;33.25;;;;;3.91;71.12;100390.97;5099242;27;45225;-62
2022/12/10 05:50:38;;;;;;;;;39.25;33.25;;;;;4.00;70.72;100402.03;5080581;27;46140;-62
2022/12/10 05:53:03;;;;;;;;;32.75;24.50;;;;;3.92;69.95;100398.81;5099675;27;45532;-62
2022/12/10 05:55:29;;;;;;;;;40.00;26.00;;;;;3.97;70.33;100407.41;5101055;27;45539;-64
2022/12/10 05:57:55;;;;;;;;;36.25;30.00;;;;;3.96;70.38;100410.97;5083082;27;45542;-62
2022/12/10 06:00:23;;;;;;;;;37.50;31.50;;;;;3.94;70.27;100402.25;5096815;27;45494;-63
2022/12/10 06:02:52;;;;;;;;;30.50;23.75;;;;;3.95;70.24;100403.97;5091667;27;45184;-63
2022/12/10 06:05:17;;;;;;;;;28.00;25.00;;;;;3.90;70.55;100390.09;5089282;27;45438;-63
2022/12/10 06:07:43;;;;;;;;;29.50;26.75;;;;;3.93;70.31;100404.94;5100463;27;45325;-63
2022/12/10 06:10:10;;;;;;;;;30.25;26.25;;;;;3.94;70.60;100407.50;5098790;27;46272;-63
2022/12/10 06:12:36;;;;;;;;;33.75;23.25;;;;;4.00;70.72;100409.94;5081355;27;45501;-62
2022/12/10 06:15:01;;;;;;;;;31.25;27.50;;;;;4.01;70.29;100408.16;5098668;27;45448;-63
2022/12/10 06:17:26;;;;;;;;;34.75;30.75;;;;;4.02;70.07;100408.13;5099858;27;45408;-62
2022/12/10 06:19:52;;;;;;;;;32.00;24.50;;;;;4.00;70.26;100409.94;5099270;27;45343;-62
2022/12/10 06:22:17;;;;;;;;;25.75;23.50;;;;;3.93;70.08;100403.16;5098429;27;45321;-62
2022/12/10 06:24:43;;;;;;;;;33.25;28.00;;;;;4.03;69.74;100423.00;5099095;27;45390;-62
2022/12/10 06:27:08;;;;;;;;;30.00;26.75;;;;;4.07;69.66;100426.41;5080027;27;45628;-62
2022/12/10 06:29:33;;;;;;;;;40.25;28.50;;;;;4.04;69.57;100421.25;5097608;27;46675;-62
2022/12/10 06:31:59;;;;;;;;;39.50;29.25;;;;;4.00;69.85;100430.13;5097830;27;45401;-63
2022/12/10 06:34:24;;;;;;;;;34.75;27.75;;;;;3.94;70.43;100428.56;5098797;27;45350;-61
2022/12/10 06:36:50;;;;;;;;;22.25;18.25;;;;;3.89;69.76;100432.22;5080776;27;45665;-61
2022/12/10 06:39:15;;;;;;;;;31.25;27.50;;;;;3.83;70.19;100435.94;5098306;27;45767;-62
2022/12/10 06:41:43;;;;;;;;;24.75;20.50;;;;;3.82;69.81;100428.94;5085191;27;45271;-63
2022/12/10 06:44:12;;;;;;;;;34.00;30.25;;;;;3.94;70.36;100441.72;5081179;27;45539;-62
2022/12/10 06:46:40;;;;;;;;;30.75;27.00;;;;;3.91;69.71;100444.44;5098514;27;45329;-64
2022/12/10 06:49:05;;;;;;;;;43.25;30.50;;;;;3.90;70.59;100442.69;5079802;27;46398;-64
2022/12/10 06:51:31;;;;;;;;;24.25;23.00;;;;;4.00;71.12;100444.16;5097043;27;45357;-63
2022/12/10 06:53:56;;;;;;;;;30.75;27.00;;;;;4.06;70.47;100449.22;5099376;27;45310;-62
2022/12/10 06:56:25;;;;;;;;;33.50;27.00;;;;;4.11;70.08;100449.94;5097306;27;45632;-63
2022/12/10 06:58:51;;;;;;;;;31.75;24.75;;;;;4.14;70.15;100448.97;5098724;27;46332;-62
2022/12/10 07:01:22;;;;;;;;;26.00;25.75;;;;;4.07;69.60;100453.59;5098042;27;45336;-64
2022/12/10 07:03:51;;;;;;;;;34.25;23.75;;;;;3.98;70.03;100455.63;5098216;27;45282;-62
2022/12/10 07:06:17;;;;;;;;;27.00;23.25;;;;;3.88;70.36;100449.78;5097983;27;45341;-63
2022/12/10 07:08:43;;;;;;;;;27.50;24.25;;;;;3.93;70.50;100458.41;5094677;27;45572;-63
2022/12/10 07:11:11;;;;;;;;;36.00;25.00;;;;;4.01;70.01;100461.66;5096051;27;45306;-63
2022/12/10 07:13:38;;;;;;;;;24.00;22.75;;;;;3.99;69.77;100468.75;5087821;27;45497;-63
2022/12/10 07:16:11;;;;;;;;;27.00;23.00;;;;;3.97;69.89;100469.69;5078383;27;45448;-62
2022/12/10 07:18:36;;;;;;;;;32.25;27.00;;;;;4.05;69.93;100479.09;5092611;27;45477;-62
2022/12/10 07:21:01;;;;;;;;;28.50;25.75;;;;;4.07;70.36;100479.91;5093827;27;45445;-62
2022/12/10 07:23:27;;;;;;;;;31.50;26.00;;;;;4.03;69.84;100465.09;5091297;27;45945;-60
2022/12/10 07:25:54;;;;;;;;;27.00;27.00;;;;;4.07;69.78;100481.66;5086170;27;46260;-63
2022/12/10 07:28:20;;;;;;;;;31.75;26.50;;;;;4.01;69.72;100493.22;5109058;27;46480;-61
2022/12/10 07:30:45;;;;;;;;;23.25;22.75;;;;;3.99;70.67;100486.28;5082319;27;45650;-64
2022/12/10 07:33:11;;;;;;;;;43.75;30.00;;;;;4.00;70.46;100486.25;5109181;27;45397;-61
2022/12/10 07:35:38;;;;;;;;;27.25;23.00;;;;;3.97;69.88;100481.09;5097881;27;45972;-61
2022/12/10 07:38:04;;;;;;;;;33.75;26.25;;;;;3.98;70.24;100485.44;5105664;27;46070;-60
2022/12/10 07:40:29;;;;;;;;;24.25;23.00;;;;;3.92;69.90;100490.03;5101064;27;45430;-67
2022/12/10 07:42:54;;;;;;;;;28.50;22.75;;;;;3.93;70.38;100489.13;5100936;27;45448;-60
2022/12/10 07:45:20;;;;;;;;;29.50;23.50;;;;;4.01;70.63;100492.38;5097902;27;45291;-61
2022/12/10 07:47:45;;;;;;;;;23.75;20.00;;;;;3.97;69.91;100496.88;5080345;27;45306;-62
2022/12/10 07:50:11;;;;;;;;;36.25;26.50;;;;;4.01;70.58;100498.50;5108166;27;45511;-61
2022/12/10 07:52:36;;;;;;;;;29.75;24.50;;;;;4.06;70.48;100495.75;5098186;27;45356;-65
2022/12/10 07:55:01;;;;;;;;;29.00;25.25;;;;;3.96;70.53;100500.41;5092475;27;46605;-60
2022/12/10 07:57:29;;;;;;;;;24.75;18.25;;;;;4.01;71.00;100503.75;5088717;27;45648;-61
2022/12/10 07:59:54;;;;;;;;;30.00;21.75;;;;;4.06;70.41;100504.50;5090148;27;46038;-59
2022/12/10 08:02:19;;;;;;;;;26.00;23.25;;;;;4.11;70.52;100502.56;5085415;27;45385;-60
2022/12/10 08:04:45;;;;;;;;;32.50;24.00;;;;;4.18;70.53;100505.03;5069812;27;45726;-60
2022/12/10 08:07:11;;;;;;;;;26.25;18.50;;;;;4.21;70.57;100520.72;5092876;27;45426;-61
2022/12/10 08:09:36;;;;;;;;;21.75;18.50;;;;;4.26;70.41;100514.38;5095732;27;45376;-60
2022/12/10 08:12:02;;;;;;;;;30.50;21.25;;;;;4.24;69.76;100515.34;5061875;27;45417;-62
2022/12/10 08:14:27;;;;;;;;;26.25;22.00;;;;;4.26;69.56;100518.78;5091001;27;45409;-60
2022/12/10 08:16:52;;;;;;;;;25.50;23.25;;;;;4.13;70.16;100519.16;5095965;27;46283;-59
2022/12/10 08:19:18;;;;;;;;;24.25;20.50;;;;;4.15;70.69;100527.00;5097333;27;45415;-63
2022/12/10 08:21:46;;;;;;;;;32.50;27.00;;;;;4.17;70.61;100530.50;5096998;27;45338;-61
2022/12/10 08:24:12;;;;;;;;;30.25;24.25;;;;;4.15;69.92;100533.13;5082402;27;45349;-61
2022/12/10 08:26:38;;;;;;;;;24.50;21.50;;;;;4.25;69.66;100532.88;5058226;27;45397;-61
2022/12/10 08:29:04;;;;;;;;;27.25;23.25;;;;;4.29;69.76;100534.47;5077024;27;45310;-61
2022/12/10 08:31:29;;;;;;;;;27.50;24.50;;;;;4.22;69.52;100527.69;5087674;27;45385;-59
2022/12/10 08:33:55;;;;;;;;;26.50;23.00;;;;;4.29;69.11;100537.13;5097397;27;45571;-60
2022/12/10 08:36:21;;;;;;;;;28.00;22.25;;;;;4.43;69.78;100558.63;5092657;27;46105;-59
2022/12/10 08:38:46;;;;;;;;;24.50;18.75;;;;;4.38;68.71;100537.69;5097228;27;45835;-61
2022/12/10 08:41:20;;;;;;;;;30.25;19.25;;;;;4.54;68.73;100563.53;5098134;27;45421;-60
2022/12/10 08:43:46;;;;;;;;;30.00;22.50;;;;;4.50;68.60;100565.41;5078455;27;45417;-59
2022/12/10 08:46:13;;;;;;;;;24.00;21.50;;;;;4.52;68.74;100558.31;5083772;27;45377;-62
2022/12/10 08:48:39;;;;;;;;;30.00;22.50;;;;;4.65;68.66;100557.03;5103215;27;45418;-61
2022/12/10 08:51:06;;;;;;;;;29.75;20.75;;;;;4.70;68.00;100560.38;5117676;27;45223;-60
2022/12/10 08:53:32;;;;;;;;;20.75;17.25;;;;;4.72;68.72;100566.47;5099203;27;45508;-61
2022/12/10 08:55:57;;;;;;;;;25.25;21.00;;;;;4.72;67.87;100561.19;5093742;27;46103;-61
2022/12/10 08:58:23;;;;;;;;;22.25;21.75;;;;;4.71;67.90;100556.84;5089847;27;45476;-61
2022/12/10 09:00:49;;;;;;;;;28.50;22.50;;;;;4.80;67.57;100567.97;5092962;27;45378;-61
2022/12/10 09:03:15;;;;;;;;;24.25;21.00;;;;;4.76;68.04;100572.50;5096146;27;45623;-61
2022/12/10 09:05:41;;;;;;;;;30.25;27.25;;;;;4.66;67.70;100571.06;5097366;27;45489;-62
2022/12/10 09:08:06;;;;;;;;;32.75;24.50;;;;;4.45;68.65;100564.72;5097374;27;45416;-62
2022/12/10 09:10:32;;;;;;;;;20.75;17.75;;;;;4.45;68.57;100559.44;5097071;27;45394;-61
2022/12/10 09:12:57;;;;;;;;;33.25;27.50;;;;;4.58;68.20;100584.50;5096046;27;45679;-61
2022/12/10 09:15:23;;;;;;;;;21.25;18.25;;;;;4.57;67.84;100588.03;5095959;27;45975;-64
2022/12/10 09:17:48;;;;;;;;;31.25;23.75;;;;;4.56;67.62;100588.94;5090240;27;45391;-63
2022/12/10 09:20:13;;;;;;;;;25.25;23.75;;;;;4.64;67.82;100584.28;5083789;27;45313;-63
2022/12/10 09:22:39;;;;;;;;;30.50;25.00;;;;;4.76;68.44;100587.44;5076577;27;45700;-61
2022/12/10 09:25:06;;;;;;;;;32.50;28.25;;;;;4.76;68.07;100598.84;5096720;27;45460;-62
2022/12/10 09:27:33;;;;;;;;;29.50;20.75;;;;;4.80;67.14;100589.91;5094696;27;46880;-63
2022/12/10 09:29:58;;;;;;;;;23.00;16.75;;;;;4.80;67.70;100589.06;5099445;27;45329;-62
2022/12/10 09:32:24;;;;;;;;;27.50;23.50;;;;;4.77;66.50;100600.56;5095326;27;45631;-63
2022/12/10 09:34:53;;;;;;;;;33.50;28.25;;;;;4.71;66.98;100579.69;5074714;27;46337;-62
2022/12/10 09:37:19;;;;;;;;;28.25;22.50;;;;;4.81;66.77;100590.78;5072291;27;45566;-64
2022/12/10 09:39:47;;;;;;;;;23.50;21.50;;;;;4.86;66.18;100594.13;5091193;27;45494;-63
2022/12/10 09:42:34;;;;;;;;;30.00;18.75;;;;;4.88;66.72;100597.59;5095312;27;45565;-63
2022/12/10 09:45:29;;;;;;;;;20.50;20.50;;;;;4.84;67.30;100581.03;5095922;27;46115;-64
2022/12/10 09:48:00;;;;;;;;;27.25;23.00;;;;;4.85;66.11;100595.06;5095780;27;45375;-63
2022/12/10 09:50:31;;;;;;;;;26.25;22.50;;;;;4.99;67.16;100600.72;5097180;27;45368;-63
2022/12/10 09:52:59;;;;;;;;;27.75;23.25;;;;;5.02;66.03;100598.84;5069429;27;45398;-63
2022/12/10 09:55:36;;;;;;;;;24.00;24.00;;;;;5.08;65.52;100596.91;5077304;27;48425;-61
2022/12/10 09:58:04;;;;;;;;;25.00;21.00;;;;;5.14;65.86;100608.13;5099453;27;45449;-61
2022/12/10 10:00:29;;;;;;;;;19.00;16.50;;;;;5.22;65.58;100597.34;5077445;27;45472;-60
2022/12/10 10:02:59;;;;;;;;;30.25;23.75;;;;;5.22;65.19;100595.56;5096306;27;45433;-62
2022/12/10 10:05:29;;;;;;;;;21.75;17.25;;;;;5.33;65.42;100611.84;5087920;27;45434;-61
2022/12/10 10:07:59;;;;;;;;;29.75;26.75;;;;;5.32;65.43;100604.84;5086336;27;45414;-58
2022/12/10 10:10:31;;;;;;;;;23.00;19.25;;;;;5.32;65.01;100604.84;5075720;27;45557;-62
2022/12/10 10:13:09;;;;;;;;;25.00;20.75;;;;;5.40;64.58;100601.09;5075831;27;45527;-61
2022/12/10 10:15:37;;;;;;;;;25.50;25.50;;;;;5.38;64.25;100581.84;5092701;27;45956;-59
2022/12/10 10:18:36;;;;;;;;;34.25;27.25;;;;;5.41;64.78;100602.81;5096197;27;45261;-61
2022/12/10 10:21:06;;;;;;;;;23.75;21.75;;;;;5.42;65.14;100604.53;5095932;27;45375;-61
2022/12/10 10:23:33;;;;;;;;;22.75;21.00;;;;;5.31;64.53;100579.41;5077939;27;45236;-60
2022/12/10 10:25:58;;;;;;;;;33.00;26.25;;;;;5.53;65.31;100597.13;5089433;27;46284;-62
2022/12/10 10:28:24;;;;;;;;;24.75;22.50;;;;;5.59;64.31;100594.25;5094120;27;45414;-61
2022/12/10 10:30:53;;;;;;;;;24.50;21.75;;;;;5.52;64.08;100600.69;5085488;27;45519;-61
2022/12/10 10:33:18;;;;;;;;;28.75;27.00;;;;;5.45;64.54;100591.25;5095486;27;45578;-62
2022/12/10 10:35:57;;;;;;;;;28.75;23.75;;;;;5.46;63.96;100591.19;5088199;27;46868;-63
2022/12/10 10:38:28;;;;;;;;;29.00;24.00;;;;;5.53;64.11;100603.25;5074877;28;45226;-60
2022/12/10 10:40:58;;;;;;;;;29.50;27.00;;;;;5.53;64.13;100590.06;5086368;27;45576;-62
2022/12/10 10:43:32;;;;;;;;;29.75;28.75;;;;;5.53;63.13;100597.13;5089793;27;45520;-64
2022/12/10 10:46:14;;;;;;;;;35.25;29.25;;;;;5.70;64.79;100599.16;5089431;27;45335;-60
2022/12/10 10:48:39;;;;;;;;;26.50;23.50;;;;;5.94;63.98;100586.88;5079162;27;45366;-62
2022/12/10 10:51:11;;;;;;;;;36.00;30.50;;;;;6.04;62.65;100598.84;5105597;27;46049;-62
2022/12/10 10:53:51;;;;;;;;;31.50;30.00;;;;;5.83;62.77;100590.75;5102920;27;45478;-63
2022/12/10 10:56:26;;;;;;;;;30.50;28.50;;;;;5.84;63.76;100602.16;5084451;27;45555;-65
2022/12/10 10:59:00;;;;;;;;;25.75;21.75;;;;;6.02;63.60;100606.81;5082171;27;45575;-64
2022/12/10 11:01:44;;;;;;;;;21.75;19.50;;;;;6.01;62.10;100598.94;5068341;27;45447;-63
2022/12/10 11:04:10;;;;;;;;;37.25;26.75;;;;;6.02;63.40;100605.94;5078946;27;45412;-63
2022/12/10 11:06:38;;;;;;;;;38.50;29.75;;;;;6.07;62.80;100610.13;5098790;27;46643;-62
2022/12/10 11:09:04;;;;;;;;;34.00;30.00;;;;;5.94;63.90;100571.91;5099257;27;45460;-63
2022/12/10 11:11:40;;;;;;;;;32.50;28.50;;;;;6.29;62.90;100610.19;5098458;27;45317;-62
2022/12/10 11:14:41;;;;;;;;;29.00;25.25;;;;;6.30;62.67;100608.41;5098671;27;45421;-64
2022/12/10 11:17:10;;;;;;;;;24.25;19.75;;;;;6.38;62.24;100603.69;5090371;27;47287;-65
2022/12/10 11:20:04;;;;;;;;;34.50;27.00;;;;;6.41;61.44;100599.16;5077153;27;45461;-65
2022/12/10 11:22:32;;;;;;;;;36.25;29.50;;;;;6.58;61.87;100593.19;5075252;27;45504;-68
2022/12/10 11:25:00;;;;;;;;;34.25;28.00;;;;;6.69;60.85;100590.13;5079238;27;45896;-64
2022/12/10 11:27:58;;;;;;;;;31.00;28.00;;;;;6.65;61.16;100594.69;5079165;27;45268;-66
2022/12/10 11:30:26;;;;;;;;;33.50;28.25;;;;;6.71;60.23;100588.28;5083230;27;45367;-64
2022/12/10 11:32:59;;;;;;;;;37.75;32.75;;;;;6.57;60.73;100586.19;5098737;27;45418;-63
2022/12/10 11:35:43;;;;;;;;;29.50;25.25;;;;;6.62;60.53;100586.88;5089523;27;45520;-63